Date,TemperatureHighF,TemperatureAvgF,TemperatureLowF,DewpointHighF,DewpointAvgF,DewpointLowF,HumidityHigh,HumidityAvg,HumidityLow,PressureMaxIn,PressureMinIn,WindSpeedMaxMPH,WindSpeedAvgMPH,GustSpeedMaxMPH,PrecipitationSumIn
2013-11-1,64.5,58.8,51.5,59.0,49.7,41.0,96,74,47,29.57,29.17,30,8,35,0.20
2013-11-2,53.2,47.0,37.2,46.0,42.8,34.0,96,85,66,29.83,29.52,14,4,19,0.12
2013-11-3,36.8,33.2,24.8,34.0,27.1,20.0,89,78,64,30.44,29.83,13,6,20,0.01
2013-11-4,47.2,33.1,22.7,27.0,21.0,18.0,88,63,36,30.58,30.43,9,1,10,0.00
2013-11-5,53.0,43.5,34.3,39.0,30.8,21.0,77,62,51,30.46,30.29,5,1,11,0.00
2013-11-6,59.5,52.3,44.8,50.0,45.4,39.0,88,77,64,30.29,29.76,9,2,13,0.00
2013-11-7,57.2,45.3,37.7,52.0,40.0,32.0,97,82,70,29.87,29.70,15,7,24,0.33
2013-11-8,39.8,37.2,33.9,33.0,30.4,27.0,93,77,60,30.13,29.85,20,9,27,0.00
2013-11-9,45.6,41.1,35.9,33.0,30.5,28.0,79,66,54,30.13,29.73,10,3,16,0.00
2013-11-10,47.8,44.3,38.8,42.0,34.8,30.0,85,70,57,30.02,29.70,28,10,33,0.00
2013-11-11,44.9,39.2,31.0,37.0,32.0,28.0,93,76,58,30.07,29.85,18,6,26,0.01
2013-11-12,30.5,27.9,24.8,29.0,23.0,19.0,94,82,64,30.27,29.99,21,10,24,0.00
2013-11-13,36.4,29.0,22.1,25.0,20.8,17.0,91,72,58,30.35,30.06,12,7,20,0.00
2013-11-14,54.3,37.4,29.2,22.0,17.9,15.0,66,47,26,30.07,29.98,14,3,16,0.00
2013-11-15,59.1,47.0,37.2,28.0,23.5,20.0,52,40,27,30.06,29.98,7,1,10,0.00
2013-11-16,63.6,49.8,38.6,41.0,35.6,25.0,77,60,40,30.18,30.02,7,1,12,0.00
2013-11-17,57.6,53.0,47.8,55.0,49.7,41.0,94,89,75,30.02,29.35,11,3,20,0.13
2013-11-18,57.3,48.7,36.2,55.0,38.1,26.0,95,68,48,29.78,29.32,29,12,35,0.09
2013-11-19,36.6,34.0,30.4,32.0,27.9,25.0,94,78,66,30.34,29.77,25,10,32,0.01
2013-11-20,43.7,30.8,21.5,26.0,19.8,16.0,84,65,42,30.52,30.33,8,2,13,0.02
2013-11-21,45.3,37.3,29.8,37.0,25.6,13.0,91,64,47,30.44,30.20,6,1,14,0.03
2013-11-22,48.1,42.6,34.6,46.0,41.2,30.0,98,94,82,30.21,29.87,19,3,27,0.24
2013-11-23,37.1,28.8,18.9,30.0,23.0,13.0,90,79,62,30.06,29.86,26,12,30,0.00
2013-11-24,22.1,18.5,16.1,17.0,13.9,10.0,93,82,63,30.31,30.02,27,12,30,0.00
2013-11-25,36.5,26.6,19.0,21.0,15.8,13.0,84,65,45,30.33,30.08,12,4,19,0.00
2013-11-26,35.4,32.0,28.8,35.0,28.7,15.0,97,88,52,30.11,29.70,14,1,16,0.49
2013-11-27,34.5,30.7,22.3,34.0,29.3,20.0,99,94,81,29.76,29.48,19,10,30,0.63
2013-11-28,25.8,22.5,19.4,22.0,17.3,14.0,95,81,66,30.35,29.77,23,8,36,0.00
2013-11-29,27.0,21.6,11.6,23.0,17.4,8.0,95,84,66,30.67,30.35,11,3,13,0.00
2013-11-30,31.2,22.9,10.7,23.0,15.5,8.0,91,75,54,30.66,30.18,7,2,12,0.01